SBMN/MAO METAR and TAF weather

Enter ICAO airport designator
Station Type Date Time Source
SBMN METAR 2021/04/13 06:00 UTC NOAA

SBMN 130600Z 02004KT CAVOK 27/25 Q1011


Station Type Date Time Source
SBMN Decoded METAR 2021/04/13 06:00 UTC NOAA

Manaus Aeroporto , Brazil (SBMN) 03-09S 059-59W 84M
Apr 13, 2021 - 02:00 AM EDT / 2021.04.13 0600 UTC
Wind: from the NNE (020 degrees) at 5 MPH (4 KT):0
Visibility: greater than 7 mile(s):0
Temperature: 80 F (27 C)
Dew Point: 77 F (25 C)
Relative Humidity: 88%
Pressure (altimeter): 29.85 in. Hg (1011 hPa)
ob: SBMN 130600Z 02004KT CAVOK 27/25 Q1011
cycle: 6

Station Type Date Time Source
SBMN TAF 2021/04/13 06:06 UTC NOAA

TAF TAF SBMN 130300Z 1306/1318 12005KT 9999 BKN025 FEW035TCU TN24/1306Z TX29/1317Z PROB40
TEMPO 1314/1318 7000 TSRA BKN020 FEW030CB
RMK PED

Example: see airport list